This is the latest recevied weather packets stored in our database for station/object WD5U-1. If no packets are shown the sender has not sent any weather packets the latest 10 day(s).
| Time | Temp. | Humidity | Pressure | Rain* | Wind** | Luminosity | Snow |
|---|---|---|---|---|---|---|---|
| 1777593865 | 16.67° C | 79% | 1015.5 hPa | 0 mm | - | - | - |
| 1777592185 | 16.67° C | 79% | 1015.6 hPa | 0 mm | - | - | - |
| 1777591225 | 17.22° C | 76% | 1015.4 hPa | 0 mm | - | - | - |
| 1777590616 | 17.22° C | 75% | 1015.4 hPa | 0 mm | - | - | - |
| 1777590383 | 17.22° C | 77% | 1015.6 hPa | 0 mm | - | - | - |
| 1777589057 | 17.22° C | 76% | 1015.1 hPa | 0 mm | - | - | - |
| 1777588935 | 17.22° C | 76% | 1015.2 hPa | 0 mm | - | - | - |
| 1777588703 | 17.22° C | 76% | 1015.5 hPa | 0 mm | - | - | - |
| 1777585939 | 17.22° C | 75% | 1015.3 hPa | 0 mm | - | - | - |
| 1777585585 | 17.22° C | 75% | 1015.2 hPa | 0 mm | - | - | - |
| 1777585342 | 17.22° C | 76% | 1015.2 hPa | 0 mm | - | - | - |
| 1777584381 | 17.22° C | 75% | 1015.6 hPa | 0 mm | - | - | - |
| 1777583419 | 17.78° C | 74% | 1015.9 hPa | 0 mm | - | - | - |
| 1777583105 | 17.78° C | 73% | 1015.8 hPa | 0 mm | - | - | - |
| 1777582700 | 17.78° C | 74% | 1015.8 hPa | 0 mm | - | - | - |
| 1777582582 | 17.78° C | 74% | 1015.7 hPa | 0 mm | - | - | - |
| 1777581141 | 17.78° C | 74% | 1015.4 hPa | 0 mm | - | - | - |
| 1777580544 | 17.22° C | 74% | 1015.4 hPa | 0 mm | - | - | - |
| 1777580422 | 17.22° C | 74% | 1015.6 hPa | 0 mm | - | - | - |
| 1777579938 | 17.22° C | 75% | 1015.9 hPa | 0 mm | - | - | - |
| 1777579583 | 17.22° C | 75% | 1015.9 hPa | 0 mm | - | - | - |
| 1777579461 | 17.22° C | 74% | 1015.9 hPa | 0 mm | - | - | - |
| 1777577902 | 18.33° C | 72% | 1015.5 hPa | 0 mm | - | - | - |
| 1777577437 | 17.78° C | 73% | 1015.8 hPa | 0 mm | - | - | - |
| 1777576943 | 17.78° C | 73% | 1016 hPa | 0 mm | - | - | - |
* Rain latest hour (hover to see other rain measurements)
** Current wind speed in m/s (hover to see current wind gust speed)